createdAt,value
2022-11-25T00:01:17.324Z,3.75
2022-11-25T00:04:02.892Z,3.10
2022-11-25T00:06:47.970Z,2.78
2022-11-25T00:09:33.143Z,2.60
2022-11-25T00:12:18.142Z,2.60
2022-11-25T00:15:03.367Z,2.35
2022-11-25T00:17:48.253Z,2.20
2022-11-25T00:20:33.442Z,2.35
2022-11-25T00:23:18.641Z,2.60
2022-11-25T00:26:12.287Z,2.28
2022-11-25T00:28:58.727Z,3.08
2022-11-25T00:31:43.981Z,2.20
2022-11-25T00:34:28.782Z,2.65
2022-11-25T00:37:13.687Z,2.25
2022-11-25T00:39:58.738Z,2.72
2022-11-25T00:43:02.410Z,2.50
2022-11-25T00:45:47.473Z,2.33
2022-11-25T00:48:32.530Z,2.30
2022-11-25T00:51:18.228Z,2.15
2022-11-25T00:54:03.572Z,1.88
2022-11-25T00:56:48.944Z,1.80
2022-11-25T00:59:33.874Z,2.17
2022-11-25T01:02:19.674Z,2.35
2022-11-25T01:05:04.672Z,2.30
2022-11-25T01:07:49.571Z,2.15
2022-11-25T01:10:34.692Z,1.77
2022-11-25T01:13:19.609Z,1.57
2022-11-25T01:16:06.575Z,1.95
2022-11-25T01:18:52.131Z,1.45
2022-11-25T01:21:37.072Z,1.85
2022-11-25T01:24:23.971Z,1.58
2022-11-25T01:27:08.925Z,2.23
2022-11-25T01:29:54.199Z,1.88
2022-11-25T01:32:39.150Z,1.80
2022-11-25T01:35:24.122Z,1.70
2022-11-25T01:38:08.822Z,1.60
2022-11-25T01:40:54.022Z,2.10
2022-11-25T01:43:39.838Z,1.88
2022-11-25T01:46:30.845Z,1.30
2022-11-25T01:49:20.912Z,1.50
2022-11-25T01:52:26.353Z,1.50
2022-11-25T01:55:19.490Z,2.00
2022-11-25T01:58:09.355Z,1.75
2022-11-25T02:00:54.314Z,2.13
2022-11-25T02:03:44.639Z,2.25
2022-11-25T02:06:37.497Z,1.70
2022-11-25T02:09:22.918Z,1.60
2022-11-25T02:12:08.294Z,1.67
2022-11-25T02:14:54.946Z,2.28
2022-11-25T02:17:40.333Z,1.70
2022-11-25T02:20:25.510Z,2.03
2022-11-25T02:23:28.179Z,1.60
2022-11-25T02:26:13.201Z,1.63
2022-11-25T02:28:58.174Z,1.77
2022-11-25T02:31:44.314Z,1.58
2022-11-25T02:34:29.342Z,2.38
2022-11-25T02:37:17.434Z,1.70
2022-11-25T02:40:02.814Z,1.52
2022-11-25T02:42:50.248Z,1.70
2022-11-25T02:45:43.293Z,1.42
2022-11-25T02:49:00.969Z,1.63
2022-11-25T02:51:37.971Z,2.07
2022-11-25T02:54:22.883Z,1.70
2022-11-25T02:57:08.022Z,1.67
2022-11-25T02:59:53.048Z,1.83
2022-11-25T03:02:38.961Z,1.60
2022-11-25T03:05:24.341Z,1.80
2022-11-25T03:08:09.562Z,1.80
2022-11-25T03:10:54.386Z,2.72
2022-11-25T03:13:39.862Z,3.20
2022-11-25T03:16:24.865Z,3.20
2022-11-25T03:19:10.154Z,2.77
2022-11-25T03:21:55.114Z,2.53
2022-11-25T03:24:40.050Z,2.45
2022-11-25T03:27:27.987Z,1.85
2022-11-25T03:30:20.817Z,1.88
2022-11-25T03:33:05.953Z,1.77
2022-11-25T03:35:50.931Z,1.98
2022-11-25T03:38:35.978Z,1.67
2022-11-25T03:41:20.849Z,1.70
2022-11-25T03:44:05.940Z,1.83
2022-11-25T03:46:51.070Z,1.70
2022-11-25T03:49:36.184Z,1.90
2022-11-25T03:52:21.147Z,1.98
2022-11-25T03:55:07.211Z,2.00
2022-11-25T03:57:52.296Z,2.13
2022-11-25T04:00:38.242Z,2.17
2022-11-25T04:03:23.195Z,2.35
2022-11-25T04:06:08.378Z,2.10
2022-11-25T04:08:53.406Z,1.88
2022-11-25T04:11:57.096Z,1.55
2022-11-25T04:14:42.209Z,1.90
2022-11-25T04:17:27.264Z,1.40
2022-11-25T04:20:14.180Z,1.65
2022-11-25T04:22:58.861Z,1.55
2022-11-25T04:25:44.026Z,1.90
2022-11-25T04:28:29.056Z,1.73
2022-11-25T04:31:14.072Z,1.77
2022-11-25T04:33:59.281Z,1.63
2022-11-25T04:36:44.258Z,2.40
2022-11-25T04:39:29.475Z,1.83
2022-11-25T04:42:32.433Z,1.70
2022-11-25T04:45:25.180Z,1.95
2022-11-25T04:48:10.207Z,2.10
2022-11-25T04:50:56.173Z,2.03
2022-11-25T04:53:41.140Z,1.73
2022-11-25T04:56:26.205Z,2.10
2022-11-25T04:59:29.844Z,1.90
2022-11-25T05:02:23.815Z,1.77
2022-11-25T05:05:08.809Z,2.47
2022-11-25T05:07:53.657Z,1.52
2022-11-25T05:10:38.600Z,1.80
2022-11-25T05:13:23.551Z,2.20
2022-11-25T05:16:08.985Z,2.13
2022-11-25T05:18:56.464Z,2.40
2022-11-25T05:21:41.677Z,1.77
2022-11-25T05:24:26.762Z,1.97
2022-11-25T05:27:12.230Z,2.00
2022-11-25T05:29:57.390Z,2.20
2022-11-25T05:32:42.537Z,2.08
2022-11-25T05:35:27.394Z,2.00
2022-11-25T05:38:12.373Z,2.23
2022-11-25T05:41:08.078Z,2.17
2022-11-25T05:43:53.265Z,2.35
2022-11-25T05:46:38.197Z,1.60
2022-11-25T05:49:23.019Z,1.95
2022-11-25T05:52:08.159Z,2.00
2022-11-25T05:54:56.998Z,2.10
2022-11-25T05:57:42.249Z,2.15
2022-11-25T06:00:27.404Z,1.80
2022-11-25T06:03:12.409Z,1.63
2022-11-25T06:05:58.975Z,1.40
2022-11-25T06:08:44.501Z,2.53
2022-11-25T06:11:29.622Z,1.85
2022-11-25T06:14:15.392Z,1.90
2022-11-25T06:17:01.369Z,2.10
2022-11-25T06:19:46.891Z,1.83
2022-11-25T06:22:31.846Z,2.03
2022-11-25T06:25:16.814Z,1.95
2022-11-25T06:28:12.946Z,1.90
2022-11-25T06:31:05.436Z,1.92
2022-11-25T06:33:52.297Z,2.20
2022-11-25T06:36:37.226Z,1.90
2022-11-25T06:39:22.212Z,1.70
2022-11-25T06:42:07.516Z,2.40
2022-11-25T06:44:52.753Z,1.98
2022-11-25T06:47:37.862Z,2.07
2022-11-25T06:50:22.809Z,2.15
2022-11-25T06:53:07.710Z,1.98
2022-11-25T06:56:06.486Z,1.90
2022-11-25T06:58:52.399Z,2.85
2022-11-25T07:01:38.172Z,1.80
2022-11-25T07:04:22.997Z,2.00
2022-11-25T07:07:08.852Z,1.95
2022-11-25T07:09:53.503Z,1.63
2022-11-25T07:12:38.657Z,1.70
2022-11-25T07:15:23.653Z,1.77
2022-11-25T07:18:08.529Z,1.70
2022-11-25T07:20:53.686Z,1.75
2022-11-25T07:23:39.388Z,1.73
2022-11-25T07:26:27.330Z,1.85
2022-11-25T07:29:43.835Z,1.60
2022-11-25T07:32:19.474Z,1.48
2022-11-25T07:35:04.930Z,1.80
2022-11-25T07:37:50.317Z,2.30
2022-11-25T07:40:35.397Z,2.15
2022-11-25T07:43:20.276Z,2.30
2022-11-25T07:46:27.332Z,2.40
2022-11-25T07:49:21.132Z,1.70
2022-11-25T07:52:06.324Z,1.10
2022-11-25T07:54:52.742Z,1.35
2022-11-25T07:57:37.847Z,1.00
2022-11-25T08:00:23.026Z,1.17
2022-11-25T08:03:08.026Z,1.02
2022-11-25T08:05:52.998Z,0.70
2022-11-25T08:08:39.139Z,1.05
2022-11-25T08:11:27.571Z,0.80
2022-11-25T08:14:13.416Z,0.90
2022-11-25T08:16:58.399Z,1.15
2022-11-25T08:19:43.453Z,1.08
2022-11-25T08:22:28.230Z,1.35
2022-11-25T08:25:13.457Z,1.07
2022-11-25T08:28:00.144Z,0.68
2022-11-25T08:30:45.451Z,0.63
2022-11-25T08:33:30.627Z,0.70
2022-11-25T08:36:16.668Z,0.73
2022-11-25T08:39:22.542Z,0.97
2022-11-25T08:42:10.769Z,0.77
2022-11-25T08:44:56.004Z,1.10
2022-11-25T08:47:41.311Z,0.95
2022-11-25T08:50:26.242Z,1.00
2022-11-25T08:53:11.383Z,1.70
2022-11-25T08:55:56.592Z,1.65
2022-11-25T08:58:41.748Z,0.93
2022-11-25T09:01:27.502Z,1.15
2022-11-25T09:04:12.598Z,1.00
2022-11-25T09:06:57.703Z,0.90
2022-11-25T09:09:42.991Z,0.98
2022-11-25T09:12:27.796Z,1.50
2022-11-25T09:15:13.190Z,1.50
2022-11-25T09:18:03.113Z,1.10
2022-11-25T09:20:47.990Z,1.20
2022-11-25T09:23:33.043Z,1.20
2022-11-25T09:26:27.048Z,1.00
2022-11-25T09:29:13.889Z,1.00
2022-11-25T09:31:59.247Z,1.10
2022-11-25T09:34:44.372Z,1.20
2022-11-25T09:37:29.505Z,1.90
2022-11-25T09:40:29.977Z,2.50
2022-11-25T09:43:54.065Z,1.60
2022-11-25T09:46:47.405Z,1.52
2022-11-25T09:49:59.867Z,1.50
2022-11-25T09:52:59.788Z,1.70
2022-11-25T09:55:49.008Z,1.65
2022-11-25T09:58:44.552Z,1.35
2022-11-25T10:01:31.433Z,1.38
2022-11-25T10:04:26.817Z,0.90
2022-11-25T10:07:22.054Z,1.00
2022-11-25T10:10:15.370Z,0.98
2022-11-25T10:13:00.800Z,0.98
2022-11-25T10:15:49.966Z,1.10
2022-11-25T10:18:41.515Z,1.07
2022-11-25T10:21:26.646Z,1.00
2022-11-25T10:24:21.428Z,1.45
2022-11-25T10:27:14.853Z,0.63
2022-11-25T10:30:04.818Z,1.38
2022-11-25T10:33:03.478Z,1.10
2022-11-25T10:35:59.270Z,0.82
2022-11-25T10:39:02.672Z,1.50
2022-11-25T10:41:58.772Z,0.90
2022-11-25T10:44:43.633Z,1.40
2022-11-25T10:48:14.279Z,1.20
2022-11-25T10:51:20.711Z,1.00
2022-11-25T10:54:16.634Z,1.17
2022-11-25T10:57:03.642Z,1.02
2022-11-25T10:59:56.604Z,1.10
2022-11-25T11:02:47.886Z,1.40
2022-11-25T11:05:32.950Z,0.95
2022-11-25T11:08:22.778Z,1.00
2022-11-25T11:11:18.806Z,1.08
2022-11-25T11:14:19.869Z,0.82
2022-11-25T11:17:05.041Z,0.80
2022-11-25T11:20:01.668Z,1.20
2022-11-25T11:22:51.442Z,0.75
2022-11-25T11:25:56.435Z,0.75
2022-11-25T11:28:41.710Z,0.80
2022-11-25T11:31:31.503Z,1.10
2022-11-25T11:34:32.014Z,0.98
2022-11-25T11:37:31.331Z,1.08
2022-11-25T11:40:29.992Z,1.40
2022-11-25T11:43:45.786Z,0.98
2022-11-25T11:46:57.083Z,1.30
2022-11-25T11:49:51.086Z,1.15
2022-11-25T11:53:02.214Z,0.90
2022-11-25T11:59:40.351Z,1.05
2022-11-25T12:02:40.552Z,1.10
2022-11-25T12:05:29.374Z,1.65
2022-11-25T12:08:27.924Z,1.25
2022-11-25T12:11:20.468Z,0.80
2022-11-25T12:14:31.148Z,1.23
2022-11-25T12:17:23.027Z,1.37
2022-11-25T12:20:26.415Z,1.05
2022-11-25T12:23:25.273Z,0.93
2022-11-25T12:26:22.284Z,0.68
2022-11-25T12:29:17.991Z,0.85
2022-11-25T12:32:23.308Z,1.17
2022-11-25T12:35:11.112Z,1.10
2022-11-25T12:38:18.489Z,0.80
2022-11-25T12:41:35.933Z,1.20
2022-11-25T12:44:26.205Z,0.90
2022-11-25T12:47:11.691Z,1.33
2022-11-25T12:49:56.887Z,0.68
2022-11-25T12:52:50.422Z,0.90
2022-11-25T12:55:37.146Z,0.82
2022-11-25T12:58:45.202Z,0.98
2022-11-25T13:01:45.298Z,1.00
2022-11-25T13:05:32.844Z,1.20
2022-11-25T13:08:19.874Z,0.80
2022-11-25T13:11:17.768Z,1.10
2022-11-25T13:14:31.081Z,1.00
2022-11-25T13:17:17.850Z,1.00
2022-11-25T13:20:27.842Z,1.48
2022-11-25T13:23:13.007Z,0.90
2022-11-25T13:26:28.782Z,1.23
2022-11-25T13:29:13.486Z,0.82
2022-11-25T13:32:25.115Z,1.40
2022-11-25T13:35:22.181Z,1.23
2022-11-25T13:38:08.406Z,1.27
2022-11-25T13:40:58.912Z,1.08
2022-11-25T13:44:06.095Z,0.90
2022-11-25T13:46:53.580Z,1.27
2022-11-25T13:49:50.064Z,1.05
2022-11-25T13:52:40.580Z,1.20
2022-11-25T13:55:37.115Z,1.50
2022-11-25T13:58:26.590Z,0.90
2022-11-25T14:01:28.022Z,1.10
2022-11-25T14:04:16.118Z,1.60
2022-11-25T14:07:17.080Z,1.23
2022-11-25T14:10:21.681Z,1.20
2022-11-25T14:13:33.846Z,1.23
2022-11-25T14:16:42.562Z,1.17
2022-11-25T14:19:52.753Z,0.90
2022-11-25T14:23:02.425Z,1.08
2022-11-25T14:25:53.343Z,0.82
2022-11-25T14:29:02.527Z,1.27
2022-11-25T14:32:14.491Z,1.20
2022-11-25T14:35:10.745Z,1.27
2022-11-25T14:38:04.843Z,1.63
2022-11-25T14:40:57.526Z,1.65
2022-11-25T14:43:51.782Z,1.50
2022-11-25T14:46:54.271Z,1.60
2022-11-25T14:49:55.315Z,1.52
2022-11-25T14:52:47.443Z,1.33
2022-11-25T14:55:32.513Z,1.20
2022-11-25T14:58:17.982Z,1.48
2022-11-25T15:01:08.221Z,1.43
2022-11-25T15:04:11.928Z,0.98
2022-11-25T15:07:00.674Z,1.30
2022-11-25T15:09:45.875Z,1.05
2022-11-25T15:12:32.835Z,1.40
2022-11-25T15:15:17.897Z,1.90
2022-11-25T15:18:07.079Z,1.42
2022-11-25T15:20:59.611Z,1.10
2022-11-25T15:23:44.648Z,1.48
2022-11-25T15:26:32.374Z,1.77
2022-11-25T15:29:17.657Z,1.33
2022-11-25T15:32:03.158Z,1.23
2022-11-25T15:34:49.307Z,1.30
2022-11-25T15:37:34.469Z,1.58
2022-11-25T15:40:40.589Z,1.40
2022-11-25T15:43:29.390Z,1.20
2022-11-25T15:46:15.563Z,1.20
2022-11-25T15:49:06.194Z,1.38
2022-11-25T15:51:56.327Z,1.10
2022-11-25T15:54:51.300Z,1.35
2022-11-25T15:57:37.819Z,1.60
2022-11-25T16:00:24.907Z,1.42
2022-11-25T16:03:20.511Z,1.55
2022-11-25T16:06:18.724Z,1.60
2022-11-25T16:09:18.403Z,2.10
2022-11-25T16:12:06.916Z,1.50
2022-11-25T16:14:51.989Z,1.70
2022-11-25T16:17:37.655Z,1.35
2022-11-25T16:20:24.762Z,1.70
2022-11-25T16:23:12.721Z,1.65
2022-11-25T16:26:02.873Z,1.53
2022-11-25T16:28:57.166Z,2.00
2022-11-25T16:31:42.413Z,1.40
2022-11-25T16:34:27.956Z,1.60
2022-11-25T16:37:13.358Z,1.98
2022-11-25T16:39:58.631Z,1.73
2022-11-25T16:42:49.210Z,2.20
2022-11-25T16:45:34.301Z,1.77
2022-11-25T16:48:22.246Z,2.00
2022-11-25T16:51:19.015Z,1.60
2022-11-25T16:54:04.755Z,1.83
2022-11-25T16:56:52.248Z,1.70
2022-11-25T16:59:43.855Z,1.50
2022-11-25T17:02:29.204Z,1.95
2022-11-25T17:05:20.075Z,1.85
2022-11-25T17:08:05.126Z,1.80
2022-11-25T17:10:52.063Z,1.90
2022-11-25T17:13:41.593Z,2.05
2022-11-25T17:16:28.469Z,2.20
2022-11-25T17:19:16.221Z,2.33
2022-11-25T17:22:01.261Z,2.03
2022-11-25T17:24:46.505Z,2.55
2022-11-25T17:27:32.754Z,2.22
2022-11-25T17:30:27.242Z,2.88
2022-11-25T17:33:18.128Z,2.90
2022-11-25T17:36:03.468Z,2.50
2022-11-25T17:38:48.883Z,2.50
2022-11-25T17:41:39.708Z,2.72
2022-11-25T17:44:27.690Z,2.58
2022-11-25T17:47:14.963Z,2.38
2022-11-25T17:49:59.899Z,2.00
2022-11-25T17:52:45.271Z,2.03
2022-11-25T17:55:31.887Z,1.83
2022-11-25T17:58:19.059Z,1.50
2022-11-25T18:01:04.467Z,1.88
2022-11-25T18:03:51.986Z,2.20
2022-11-25T18:06:36.857Z,1.88
2022-11-25T18:09:21.915Z,2.22
2022-11-25T18:12:10.616Z,1.75
2022-11-25T18:14:56.058Z,1.80
2022-11-25T18:17:41.418Z,1.67
2022-11-25T18:20:27.176Z,1.60
2022-11-25T18:23:12.382Z,1.63
2022-11-25T18:26:01.226Z,2.22
2022-11-25T18:28:46.040Z,2.28
2022-11-25T18:31:31.258Z,2.23
2022-11-25T18:34:17.687Z,1.63
2022-11-25T18:37:03.058Z,1.67
2022-11-25T18:39:47.840Z,1.67
2022-11-25T18:42:32.963Z,1.63
2022-11-25T18:45:21.199Z,1.80
2022-11-25T18:48:15.571Z,1.98
2022-11-25T18:51:00.466Z,1.63
2022-11-25T18:53:45.547Z,1.98
2022-11-25T18:56:30.697Z,2.05
2022-11-25T18:59:19.355Z,2.27
2022-11-25T19:02:14.982Z,1.73
2022-11-25T19:04:59.937Z,2.13
2022-11-25T19:07:46.853Z,2.33
2022-11-25T19:10:36.472Z,2.42
2022-11-25T19:13:27.189Z,1.77
2022-11-25T19:16:16.740Z,2.38
2022-11-25T19:19:01.739Z,2.40
2022-11-25T19:21:46.709Z,1.80
2022-11-25T19:24:31.842Z,1.98
2022-11-25T19:27:24.669Z,2.10
2022-11-25T19:30:24.113Z,2.40
2022-11-25T19:33:24.543Z,1.75
2022-11-25T19:36:23.487Z,2.20
2022-11-25T19:39:17.885Z,2.28
2022-11-25T19:42:03.558Z,1.97
2022-11-25T19:44:48.412Z,2.60
2022-11-25T19:47:33.605Z,2.30
2022-11-25T19:50:24.827Z,2.15
2022-11-25T19:53:15.927Z,2.15
2022-11-25T19:56:03.823Z,2.53
2022-11-25T19:58:48.605Z,2.53
2022-11-25T20:01:37.630Z,3.00
2022-11-25T20:04:22.638Z,2.30
2022-11-25T20:07:13.139Z,3.10
2022-11-25T20:10:21.397Z,2.43
2022-11-25T20:13:07.050Z,2.90
2022-11-25T20:15:54.668Z,2.58
2022-11-25T20:18:39.937Z,2.78
2022-11-25T20:21:32.944Z,2.67
2022-11-25T20:24:20.156Z,2.53
2022-11-25T20:27:05.326Z,2.92
2022-11-25T20:29:50.409Z,3.05
2022-11-25T20:32:35.537Z,2.67
2022-11-25T20:35:22.115Z,3.05
2022-11-25T20:38:17.715Z,2.80
2022-11-25T20:41:04.132Z,2.58
2022-11-25T20:43:50.133Z,2.72
2022-11-25T20:46:35.313Z,3.38
2022-11-25T20:49:27.478Z,3.78
2022-11-25T20:52:44.689Z,3.73
2022-11-25T20:55:29.772Z,3.75
2022-11-25T20:58:25.980Z,3.83
2022-11-25T21:01:11.600Z,3.67
2022-11-25T21:03:56.262Z,3.95
2022-11-25T21:06:41.603Z,3.10
2022-11-25T21:09:31.702Z,3.85
2022-11-25T21:12:19.456Z,3.53
2022-11-25T21:15:13.298Z,2.75
2022-11-25T21:17:59.515Z,3.53
2022-11-25T21:20:45.035Z,3.57
2022-11-25T21:23:36.236Z,3.40
2022-11-25T21:26:24.965Z,3.60
2022-11-25T21:29:15.822Z,3.60
2022-11-25T21:32:00.985Z,3.72
2022-11-25T21:34:46.080Z,3.73
2022-11-25T21:37:35.696Z,4.38
2022-11-25T21:40:32.569Z,3.92
2022-11-25T21:43:24.145Z,4.20
2022-11-25T21:46:13.760Z,4.10
2022-11-25T21:48:58.470Z,3.77
2022-11-25T21:51:43.671Z,3.63
2022-11-25T21:54:28.400Z,3.65
2022-11-25T21:57:16.017Z,4.05
2022-11-25T22:00:01.501Z,4.70
2022-11-25T22:02:46.542Z,4.10
2022-11-25T22:05:31.208Z,3.80
2022-11-25T22:08:17.095Z,4.00
2022-11-25T22:11:02.290Z,3.70
2022-11-25T22:13:49.123Z,4.18
2022-11-25T22:16:36.563Z,4.77
2022-11-25T22:19:24.806Z,4.15
2022-11-25T22:22:15.045Z,3.90
2022-11-25T22:24:59.897Z,4.15
2022-11-25T22:27:45.251Z,4.13
2022-11-25T22:30:30.062Z,4.50
2022-11-25T22:33:15.258Z,4.03
2022-11-25T22:36:00.935Z,4.30
2022-11-25T22:38:45.977Z,4.38
2022-11-25T22:41:31.079Z,4.03
2022-11-25T22:44:28.639Z,4.57
2022-11-25T22:47:24.983Z,3.95
2022-11-25T22:50:15.549Z,4.13
2022-11-25T22:53:01.219Z,4.32
2022-11-25T22:55:46.436Z,4.03
2022-11-25T22:58:31.395Z,4.93
2022-11-25T23:01:17.003Z,4.53
2022-11-25T23:04:02.896Z,4.32
2022-11-25T23:06:48.119Z,3.95
2022-11-25T23:09:32.977Z,4.63
2022-11-25T23:12:18.442Z,4.13
2022-11-25T23:15:03.514Z,4.07
2022-11-25T23:17:55.567Z,3.75
2022-11-25T23:20:40.702Z,3.70
2022-11-25T23:23:28.223Z,4.40
2022-11-25T23:26:14.338Z,4.03
2022-11-25T23:28:59.368Z,4.22
2022-11-25T23:31:44.682Z,3.88
2022-11-25T23:34:29.585Z,3.67
2022-11-25T23:37:14.751Z,4.07
2022-11-25T23:39:59.894Z,3.80
2022-11-25T23:42:45.333Z,3.88
2022-11-25T23:45:30.271Z,4.00
2022-11-25T23:48:15.770Z,3.90
2022-11-25T23:51:00.878Z,4.47
2022-11-25T23:53:45.971Z,8.40
2022-11-25T23:56:31.073Z,6.20
2022-11-25T23:59:16.972Z,4.47
